Terminal Aerodrome Forecast
Issued by NWS

Home | Current Version | Previous Version | Text Only | Print | Product List | Glossary On
Versions: 1 2 3 4 5 6 7 8 9 10 11 12 13
000
FTAK31 PAFA 300109 AAB
TAFATA
TAF AMD
PATA 300109Z 3001/3024 22008G16KT P6SM -SHRA OVC045
      TEMPO 3001/3004 5SM TSRA BKN025CB
     FM300700 20006KT P6SM VCSH SCT025 BKN050 OVC100
     FM301600 17007KT 5SM -SHRA BR SCT025 OVC050=

USA.gov is the U.S. government's official web portal to all federal, state and local government web resources and services.